sensor_id;sensor_type;location;lat;lon;timestamp;temperature;humidity
13982;DHT22;7065;50.880;5.502;2024-01-27T00:01:37;0.90;99.90
13982;DHT22;7065;50.880;5.502;2024-01-27T00:04:03;0.80;99.90
13982;DHT22;7065;50.880;5.502;2024-01-27T00:06:29;0.70;99.90
13982;DHT22;7065;50.880;5.502;2024-01-27T00:08:54;0.60;99.90
13982;DHT22;7065;50.880;5.502;2024-01-27T00:11:20;0.60;99.90
13982;DHT22;7065;50.880;5.502;2024-01-27T00:13:46;0.60;99.90
13982;DHT22;7065;50.880;5.502;2024-01-27T00:16:12;0.60;99.90
13982;DHT22;7065;50.880;5.502;2024-01-27T00:18:38;0.60;99.90
13982;DHT22;7065;50.880;5.502;2024-01-27T00:21:07;0.70;99.90
13982;DHT22;7065;50.880;5.502;2024-01-27T00:23:33;0.70;99.90
13982;DHT22;7065;50.880;5.502;2024-01-27T00:26:00;0.70;99.90
13982;DHT22;7065;50.880;5.502;2024-01-27T00:28:27;0.60;99.90
13982;DHT22;7065;50.880;5.502;2024-01-27T00:30:54;0.60;99.90
13982;DHT22;7065;50.880;5.502;2024-01-27T00:33:19;0.60;99.90
13982;DHT22;7065;50.880;5.502;2024-01-27T00:35:45;0.70;99.90
13982;DHT22;7065;50.880;5.502;2024-01-27T00:38:11;0.70;99.90
13982;DHT22;7065;50.880;5.502;2024-01-27T00:40:37;0.60;99.90
13982;DHT22;7065;50.880;5.502;2024-01-27T00:43:03;0.50;99.90
13982;DHT22;7065;50.880;5.502;2024-01-27T00:45:29;0.40;99.90
13982;DHT22;7065;50.880;5.502;2024-01-27T00:47:56;0.40;99.90
13982;DHT22;7065;50.880;5.502;2024-01-27T00:50:22;0.40;99.90
13982;DHT22;7065;50.880;5.502;2024-01-27T00:52:48;0.30;99.90
13982;DHT22;7065;50.880;5.502;2024-01-27T00:55:14;0.20;99.90
13982;DHT22;7065;50.880;5.502;2024-01-27T00:57:39;0.10;99.90
13982;DHT22;7065;50.880;5.502;2024-01-27T01:00:07;0.00;99.90
13982;DHT22;7065;50.880;5.502;2024-01-27T01:02:34;0.00;99.90
13982;DHT22;7065;50.880;5.502;2024-01-27T01:04:59;-0.10;99.90
13982;DHT22;7065;50.880;5.502;2024-01-27T01:07:25;-0.10;99.90
13982;DHT22;7065;50.880;5.502;2024-01-27T01:09:51;-0.20;99.90
13982;DHT22;7065;50.880;5.502;2024-01-27T01:12:17;-0.20;99.90
13982;DHT22;7065;50.880;5.502;2024-01-27T01:14:43;-0.30;99.90
13982;DHT22;7065;50.880;5.502;2024-01-27T01:17:09;-0.30;99.90
13982;DHT22;7065;50.880;5.502;2024-01-27T01:19:37;-0.40;99.90
13982;DHT22;7065;50.880;5.502;2024-01-27T01:22:03;-0.40;99.90
13982;DHT22;7065;50.880;5.502;2024-01-27T01:24:29;-0.30;99.90
13982;DHT22;7065;50.880;5.502;2024-01-27T01:26:55;-0.30;99.90
13982;DHT22;7065;50.880;5.502;2024-01-27T01:29:20;-0.20;99.90
13982;DHT22;7065;50.880;5.502;2024-01-27T01:31:47;-0.30;99.90
13982;DHT22;7065;50.880;5.502;2024-01-27T01:34:13;-0.30;99.90
13982;DHT22;7065;50.880;5.502;2024-01-27T01:36:39;-0.30;99.90
13982;DHT22;7065;50.880;5.502;2024-01-27T01:39:04;-0.30;99.90
13982;DHT22;7065;50.880;5.502;2024-01-27T01:41:30;-0.30;99.90
13982;DHT22;7065;50.880;5.502;2024-01-27T01:43:55;-0.40;99.90
13982;DHT22;7065;50.880;5.502;2024-01-27T01:46:22;-0.40;99.90
13982;DHT22;7065;50.880;5.502;2024-01-27T01:48:49;-0.40;99.90
13982;DHT22;7065;50.880;5.502;2024-01-27T01:51:16;-0.50;99.90
13982;DHT22;7065;50.880;5.502;2024-01-27T01:53:43;-0.50;99.90
13982;DHT22;7065;50.880;5.502;2024-01-27T01:56:09;-0.50;99.90
13982;DHT22;7065;50.880;5.502;2024-01-27T01:58:35;-0.50;99.90
13982;DHT22;7065;50.880;5.502;2024-01-27T02:01:01;-0.60;99.90
13982;DHT22;7065;50.880;5.502;2024-01-27T02:03:27;-0.60;99.90
13982;DHT22;7065;50.880;5.502;2024-01-27T02:05:54;-0.60;99.90
13982;DHT22;7065;50.880;5.502;2024-01-27T02:08:20;-0.60;99.90
13982;DHT22;7065;50.880;5.502;2024-01-27T02:10:45;-0.60;99.90
13982;DHT22;7065;50.880;5.502;2024-01-27T02:13:18;-0.70;99.90
13982;DHT22;7065;50.880;5.502;2024-01-27T02:15:44;-0.60;99.90
13982;DHT22;7065;50.880;5.502;2024-01-27T02:18:10;-0.60;99.90
13982;DHT22;7065;50.880;5.502;2024-01-27T02:20:36;-0.70;99.90
13982;DHT22;7065;50.880;5.502;2024-01-27T02:23:03;-0.70;99.90
13982;DHT22;7065;50.880;5.502;2024-01-27T02:25:30;-0.70;99.90
13982;DHT22;7065;50.880;5.502;2024-01-27T02:27:56;-0.70;99.90
13982;DHT22;7065;50.880;5.502;2024-01-27T02:30:22;-0.70;99.90
13982;DHT22;7065;50.880;5.502;2024-01-27T02:32:48;-0.70;99.90
13982;DHT22;7065;50.880;5.502;2024-01-27T02:35:14;-0.70;99.90
13982;DHT22;7065;50.880;5.502;2024-01-27T02:37:40;-0.70;99.90
13982;DHT22;7065;50.880;5.502;2024-01-27T02:40:07;-0.80;99.90
13982;DHT22;7065;50.880;5.502;2024-01-27T02:42:35;-0.80;99.90
13982;DHT22;7065;50.880;5.502;2024-01-27T02:45:00;-0.80;99.90
13982;DHT22;7065;50.880;5.502;2024-01-27T02:47:26;-0.80;99.90
13982;DHT22;7065;50.880;5.502;2024-01-27T02:49:52;-0.80;99.90
13982;DHT22;7065;50.880;5.502;2024-01-27T02:52:17;-0.80;99.90
13982;DHT22;7065;50.880;5.502;2024-01-27T02:54:43;-0.80;99.90
13982;DHT22;7065;50.880;5.502;2024-01-27T02:57:09;-0.70;99.90
13982;DHT22;7065;50.880;5.502;2024-01-27T02:59:35;-0.70;99.90
13982;DHT22;7065;50.880;5.502;2024-01-27T03:02:01;-0.70;99.90
13982;DHT22;7065;50.880;5.502;2024-01-27T03:04:26;-0.80;99.90
13982;DHT22;7065;50.880;5.502;2024-01-27T03:06:52;-0.80;99.90
13982;DHT22;7065;50.880;5.502;2024-01-27T03:09:18;-0.80;99.90
13982;DHT22;7065;50.880;5.502;2024-01-27T03:11:44;-0.90;99.90
13982;DHT22;7065;50.880;5.502;2024-01-27T03:14:09;-0.90;99.90
13982;DHT22;7065;50.880;5.502;2024-01-27T03:16:36;-0.90;99.90
13982;DHT22;7065;50.880;5.502;2024-01-27T03:19:02;-0.90;99.90
13982;DHT22;7065;50.880;5.502;2024-01-27T03:21:29;-0.90;99.90
13982;DHT22;7065;50.880;5.502;2024-01-27T03:23:55;-1.00;99.90
13982;DHT22;7065;50.880;5.502;2024-01-27T03:26:20;-1.00;99.90
13982;DHT22;7065;50.880;5.502;2024-01-27T03:28:46;-1.00;99.90
13982;DHT22;7065;50.880;5.502;2024-01-27T03:31:11;-1.00;99.90
13982;DHT22;7065;50.880;5.502;2024-01-27T03:33:37;-1.00;99.90
13982;DHT22;7065;50.880;5.502;2024-01-27T03:36:03;-0.90;99.90
13982;DHT22;7065;50.880;5.502;2024-01-27T03:38:34;-0.90;99.90
13982;DHT22;7065;50.880;5.502;2024-01-27T03:41:02;-0.90;99.90
13982;DHT22;7065;50.880;5.502;2024-01-27T03:43:27;-0.90;99.90
13982;DHT22;7065;50.880;5.502;2024-01-27T03:45:53;-1.00;99.90
13982;DHT22;7065;50.880;5.502;2024-01-27T03:48:20;-1.00;99.90
13982;DHT22;7065;50.880;5.502;2024-01-27T03:50:45;-1.10;99.90
13982;DHT22;7065;50.880;5.502;2024-01-27T03:53:11;-1.20;99.90
13982;DHT22;7065;50.880;5.502;2024-01-27T03:55:36;-1.20;99.90
13982;DHT22;7065;50.880;5.502;2024-01-27T03:58:02;-1.30;99.90
13982;DHT22;7065;50.880;5.502;2024-01-27T04:00:28;-1.30;99.90
13982;DHT22;7065;50.880;5.502;2024-01-27T04:03:01;-1.30;99.90
13982;DHT22;7065;50.880;5.502;2024-01-27T04:05:28;-1.30;99.90
13982;DHT22;7065;50.880;5.502;2024-01-27T04:07:53;-1.30;99.90
13982;DHT22;7065;50.880;5.502;2024-01-27T04:10:20;-1.30;99.90
13982;DHT22;7065;50.880;5.502;2024-01-27T04:12:46;-1.30;99.90
13982;DHT22;7065;50.880;5.502;2024-01-27T04:15:11;-1.30;99.90
13982;DHT22;7065;50.880;5.502;2024-01-27T04:17:37;-1.30;99.90
13982;DHT22;7065;50.880;5.502;2024-01-27T04:20:04;-1.30;99.90
13982;DHT22;7065;50.880;5.502;2024-01-27T04:22:30;-1.30;99.90
13982;DHT22;7065;50.880;5.502;2024-01-27T04:24:56;-1.20;99.90
13982;DHT22;7065;50.880;5.502;2024-01-27T04:27:22;-1.20;99.90
13982;DHT22;7065;50.880;5.502;2024-01-27T04:29:48;-1.30;99.90
13982;DHT22;7065;50.880;5.502;2024-01-27T04:32:14;-1.30;99.90
13982;DHT22;7065;50.880;5.502;2024-01-27T04:34:40;-1.30;99.90
13982;DHT22;7065;50.880;5.502;2024-01-27T04:37:05;-1.40;99.90
13982;DHT22;7065;50.880;5.502;2024-01-27T04:39:31;-1.40;99.90
13982;DHT22;7065;50.880;5.502;2024-01-27T04:41:57;-1.40;99.90
13982;DHT22;7065;50.880;5.502;2024-01-27T04:44:23;-1.40;99.90
13982;DHT22;7065;50.880;5.502;2024-01-27T04:46:49;-1.50;99.90
13982;DHT22;7065;50.880;5.502;2024-01-27T04:49:15;-1.50;99.90
13982;DHT22;7065;50.880;5.502;2024-01-27T04:51:41;-1.50;99.90
13982;DHT22;7065;50.880;5.502;2024-01-27T04:54:08;-1.50;99.90
13982;DHT22;7065;50.880;5.502;2024-01-27T04:56:33;-1.60;99.90
13982;DHT22;7065;50.880;5.502;2024-01-27T04:58:59;-1.60;99.90
13982;DHT22;7065;50.880;5.502;2024-01-27T05:01:25;-1.60;99.90
13982;DHT22;7065;50.880;5.502;2024-01-27T05:03:50;-1.60;99.90
13982;DHT22;7065;50.880;5.502;2024-01-27T05:06:16;-1.60;99.90
13982;DHT22;7065;50.880;5.502;2024-01-27T05:08:44;-1.60;99.90
13982;DHT22;7065;50.880;5.502;2024-01-27T05:11:09;-1.50;99.90
13982;DHT22;7065;50.880;5.502;2024-01-27T05:13:35;-1.50;99.90
13982;DHT22;7065;50.880;5.502;2024-01-27T05:16:03;-1.50;99.90
13982;DHT22;7065;50.880;5.502;2024-01-27T05:18:29;-1.50;99.90
13982;DHT22;7065;50.880;5.502;2024-01-27T05:20:55;-1.50;99.90
13982;DHT22;7065;50.880;5.502;2024-01-27T05:23:20;-1.50;99.90
13982;DHT22;7065;50.880;5.502;2024-01-27T05:25:46;-1.50;99.90
13982;DHT22;7065;50.880;5.502;2024-01-27T05:28:12;-1.50;99.90
13982;DHT22;7065;50.880;5.502;2024-01-27T05:30:38;-1.50;99.90
13982;DHT22;7065;50.880;5.502;2024-01-27T05:33:04;-1.50;99.90
13982;DHT22;7065;50.880;5.502;2024-01-27T05:35:29;-1.50;99.90
13982;DHT22;7065;50.880;5.502;2024-01-27T05:37:55;-1.50;99.90
13982;DHT22;7065;50.880;5.502;2024-01-27T05:40:21;-1.60;99.90
13982;DHT22;7065;50.880;5.502;2024-01-27T05:42:47;-1.50;99.90
13982;DHT22;7065;50.880;5.502;2024-01-27T05:45:14;-1.50;99.90
13982;DHT22;7065;50.880;5.502;2024-01-27T05:47:40;-1.50;99.90
13982;DHT22;7065;50.880;5.502;2024-01-27T05:50:07;-1.50;99.90
13982;DHT22;7065;50.880;5.502;2024-01-27T05:52:34;-1.50;99.90
13982;DHT22;7065;50.880;5.502;2024-01-27T05:55:01;-1.50;99.90
13982;DHT22;7065;50.880;5.502;2024-01-27T05:57:26;-1.40;99.90
13982;DHT22;7065;50.880;5.502;2024-01-27T05:59:52;-1.40;99.90
13982;DHT22;7065;50.880;5.502;2024-01-27T06:02:19;-1.40;99.90
13982;DHT22;7065;50.880;5.502;2024-01-27T06:04:45;-1.30;99.90
13982;DHT22;7065;50.880;5.502;2024-01-27T06:07:11;-1.30;99.90
13982;DHT22;7065;50.880;5.502;2024-01-27T06:09:40;-1.30;99.90
13982;DHT22;7065;50.880;5.502;2024-01-27T06:12:05;-1.40;99.90
13982;DHT22;7065;50.880;5.502;2024-01-27T06:14:31;-1.30;99.90
13982;DHT22;7065;50.880;5.502;2024-01-27T06:16:57;-1.40;99.90
13982;DHT22;7065;50.880;5.502;2024-01-27T06:19:23;-1.50;99.90
13982;DHT22;7065;50.880;5.502;2024-01-27T06:21:50;-1.50;99.90
13982;DHT22;7065;50.880;5.502;2024-01-27T06:24:16;-1.60;99.90
13982;DHT22;7065;50.880;5.502;2024-01-27T06:26:41;-1.60;99.90
13982;DHT22;7065;50.880;5.502;2024-01-27T06:29:07;-1.60;99.90
13982;DHT22;7065;50.880;5.502;2024-01-27T06:31:33;-1.70;99.90
13982;DHT22;7065;50.880;5.502;2024-01-27T06:33:59;-1.60;99.90
13982;DHT22;7065;50.880;5.502;2024-01-27T06:36:24;-1.70;99.90
13982;DHT22;7065;50.880;5.502;2024-01-27T06:38:52;-1.60;99.90
13982;DHT22;7065;50.880;5.502;2024-01-27T06:41:18;-1.60;99.90
13982;DHT22;7065;50.880;5.502;2024-01-27T06:43:44;-1.60;99.90
13982;DHT22;7065;50.880;5.502;2024-01-27T06:46:09;-1.60;99.90
13982;DHT22;7065;50.880;5.502;2024-01-27T06:48:35;-1.60;99.90
13982;DHT22;7065;50.880;5.502;2024-01-27T06:51:01;-1.60;99.90
13982;DHT22;7065;50.880;5.502;2024-01-27T06:53:27;-1.50;99.90
13982;DHT22;7065;50.880;5.502;2024-01-27T06:55:52;-1.50;99.90
13982;DHT22;7065;50.880;5.502;2024-01-27T06:58:18;-1.50;99.90
13982;DHT22;7065;50.880;5.502;2024-01-27T07:00:44;-1.40;99.90
13982;DHT22;7065;50.880;5.502;2024-01-27T07:03:11;-1.40;99.90
13982;DHT22;7065;50.880;5.502;2024-01-27T07:05:36;-1.40;99.90
13982;DHT22;7065;50.880;5.502;2024-01-27T07:08:09;-1.50;99.90
13982;DHT22;7065;50.880;5.502;2024-01-27T07:10:38;-1.50;99.90
13982;DHT22;7065;50.880;5.502;2024-01-27T07:13:05;-1.50;99.90
13982;DHT22;7065;50.880;5.502;2024-01-27T07:15:31;-1.40;99.90
13982;DHT22;7065;50.880;5.502;2024-01-27T07:17:57;-1.40;99.90
13982;DHT22;7065;50.880;5.502;2024-01-27T07:20:23;-1.40;99.90
13982;DHT22;7065;50.880;5.502;2024-01-27T07:22:49;-1.30;99.90
13982;DHT22;7065;50.880;5.502;2024-01-27T07:25:15;-1.30;99.90
13982;DHT22;7065;50.880;5.502;2024-01-27T07:27:41;-1.20;99.90
13982;DHT22;7065;50.880;5.502;2024-01-27T07:30:07;-1.20;99.90
13982;DHT22;7065;50.880;5.502;2024-01-27T07:32:34;-1.20;99.90
13982;DHT22;7065;50.880;5.502;2024-01-27T07:35:02;-1.20;99.90
13982;DHT22;7065;50.880;5.502;2024-01-27T07:37:28;-1.10;99.90
13982;DHT22;7065;50.880;5.502;2024-01-27T07:39:53;-1.10;99.90
13982;DHT22;7065;50.880;5.502;2024-01-27T07:42:19;-1.20;99.90
13982;DHT22;7065;50.880;5.502;2024-01-27T07:44:45;-1.20;99.90
13982;DHT22;7065;50.880;5.502;2024-01-27T07:47:11;-1.30;99.90
13982;DHT22;7065;50.880;5.502;2024-01-27T07:49:37;-1.40;99.90
13982;DHT22;7065;50.880;5.502;2024-01-27T07:52:03;-1.40;99.90
13982;DHT22;7065;50.880;5.502;2024-01-27T07:54:29;-1.40;99.90
13982;DHT22;7065;50.880;5.502;2024-01-27T07:56:55;-1.40;99.90
13982;DHT22;7065;50.880;5.502;2024-01-27T07:59:20;-1.30;99.90
13982;DHT22;7065;50.880;5.502;2024-01-27T08:01:46;-1.20;99.90
13982;DHT22;7065;50.880;5.502;2024-01-27T08:04:12;-1.20;99.90
13982;DHT22;7065;50.880;5.502;2024-01-27T08:06:49;-1.20;99.90
13982;DHT22;7065;50.880;5.502;2024-01-27T08:09:16;-1.30;99.90
13982;DHT22;7065;50.880;5.502;2024-01-27T08:11:42;-1.20;99.90
13982;DHT22;7065;50.880;5.502;2024-01-27T08:14:08;-1.20;99.90
13982;DHT22;7065;50.880;5.502;2024-01-27T08:16:34;-1.10;99.90
13982;DHT22;7065;50.880;5.502;2024-01-27T08:19:00;-1.00;99.90
13982;DHT22;7065;50.880;5.502;2024-01-27T08:21:25;-1.00;99.90
13982;DHT22;7065;50.880;5.502;2024-01-27T08:23:51;-0.90;99.90
13982;DHT22;7065;50.880;5.502;2024-01-27T08:26:17;-0.80;99.90
13982;DHT22;7065;50.880;5.502;2024-01-27T08:28:44;-0.80;99.90
13982;DHT22;7065;50.880;5.502;2024-01-27T08:31:10;-0.70;99.90
13982;DHT22;7065;50.880;5.502;2024-01-27T08:33:35;-0.60;99.90
13982;DHT22;7065;50.880;5.502;2024-01-27T08:36:01;-0.50;99.90
13982;DHT22;7065;50.880;5.502;2024-01-27T08:38:27;-0.40;99.90
13982;DHT22;7065;50.880;5.502;2024-01-27T08:40:54;-0.30;99.90
13982;DHT22;7065;50.880;5.502;2024-01-27T08:43:20;-0.10;99.90
13982;DHT22;7065;50.880;5.502;2024-01-27T08:45:46;-0.10;99.90
13982;DHT22;7065;50.880;5.502;2024-01-27T08:48:11;0.00;99.90
13982;DHT22;7065;50.880;5.502;2024-01-27T08:50:38;0.10;99.90
13982;DHT22;7065;50.880;5.502;2024-01-27T08:53:04;0.20;99.90
13982;DHT22;7065;50.880;5.502;2024-01-27T08:55:30;0.40;99.90
13982;DHT22;7065;50.880;5.502;2024-01-27T08:57:59;0.50;99.90
13982;DHT22;7065;50.880;5.502;2024-01-27T09:00:25;0.60;99.90
13982;DHT22;7065;50.880;5.502;2024-01-27T09:02:52;0.70;99.90
13982;DHT22;7065;50.880;5.502;2024-01-27T09:05:18;0.70;99.90
13982;DHT22;7065;50.880;5.502;2024-01-27T09:07:44;0.80;99.90
13982;DHT22;7065;50.880;5.502;2024-01-27T09:10:10;0.80;99.90
13982;DHT22;7065;50.880;5.502;2024-01-27T09:12:39;0.90;99.90
13982;DHT22;7065;50.880;5.502;2024-01-27T09:15:05;0.90;99.90
13982;DHT22;7065;50.880;5.502;2024-01-27T09:17:32;0.90;99.90
13982;DHT22;7065;50.880;5.502;2024-01-27T09:19:58;1.00;99.90
13982;DHT22;7065;50.880;5.502;2024-01-27T09:22:24;1.00;99.90
13982;DHT22;7065;50.880;5.502;2024-01-27T09:24:51;1.10;99.90
13982;DHT22;7065;50.880;5.502;2024-01-27T09:27:17;1.10;99.90
13982;DHT22;7065;50.880;5.502;2024-01-27T09:29:42;1.20;99.90
13982;DHT22;7065;50.880;5.502;2024-01-27T09:32:09;1.20;99.90
13982;DHT22;7065;50.880;5.502;2024-01-27T09:34:34;1.30;99.90
13982;DHT22;7065;50.880;5.502;2024-01-27T09:37:01;1.40;99.90
13982;DHT22;7065;50.880;5.502;2024-01-27T09:39:27;1.40;99.90
13982;DHT22;7065;50.880;5.502;2024-01-27T09:41:54;1.50;99.90
13982;DHT22;7065;50.880;5.502;2024-01-27T09:44:21;1.60;99.90
13982;DHT22;7065;50.880;5.502;2024-01-27T09:46:47;1.60;99.90
13982;DHT22;7065;50.880;5.502;2024-01-27T09:49:14;1.60;99.90
13982;DHT22;7065;50.880;5.502;2024-01-27T09:51:43;1.70;99.90
13982;DHT22;7065;50.880;5.502;2024-01-27T09:54:09;1.70;99.90
13982;DHT22;7065;50.880;5.502;2024-01-27T09:56:35;1.70;99.90
13982;DHT22;7065;50.880;5.502;2024-01-27T09:59:01;1.80;99.90
13982;DHT22;7065;50.880;5.502;2024-01-27T10:01:28;1.80;99.90
13982;DHT22;7065;50.880;5.502;2024-01-27T10:03:54;1.90;99.90
13982;DHT22;7065;50.880;5.502;2024-01-27T10:06:23;2.00;99.90
13982;DHT22;7065;50.880;5.502;2024-01-27T10:08:54;2.10;99.90
13982;DHT22;7065;50.880;5.502;2024-01-27T10:11:21;2.20;99.90
13982;DHT22;7065;50.880;5.502;2024-01-27T10:13:56;2.20;99.90
13982;DHT22;7065;50.880;5.502;2024-01-27T10:16:25;2.30;99.90
13982;DHT22;7065;50.880;5.502;2024-01-27T10:19:03;2.40;99.90
13982;DHT22;7065;50.880;5.502;2024-01-27T10:21:29;2.50;99.90
13982;DHT22;7065;50.880;5.502;2024-01-27T10:23:55;2.60;99.90
13982;DHT22;7065;50.880;5.502;2024-01-27T10:26:20;2.70;99.90
13982;DHT22;7065;50.880;5.502;2024-01-27T10:28:56;2.90;99.90
13982;DHT22;7065;50.880;5.502;2024-01-27T10:31:34;3.20;99.90
13982;DHT22;7065;50.880;5.502;2024-01-27T10:34:01;3.40;99.90
13982;DHT22;7065;50.880;5.502;2024-01-27T10:36:41;3.50;99.90
13982;DHT22;7065;50.880;5.502;2024-01-27T10:39:20;3.60;99.90
13982;DHT22;7065;50.880;5.502;2024-01-27T10:41:47;3.80;99.90
13982;DHT22;7065;50.880;5.502;2024-01-27T10:44:18;3.90;99.90
13982;DHT22;7065;50.880;5.502;2024-01-27T10:46:46;4.00;99.90
13982;DHT22;7065;50.880;5.502;2024-01-27T10:49:18;4.10;99.90
13982;DHT22;7065;50.880;5.502;2024-01-27T10:51:52;4.20;99.90
13982;DHT22;7065;50.880;5.502;2024-01-27T10:54:23;4.30;99.90
13982;DHT22;7065;50.880;5.502;2024-01-27T10:56:53;4.40;99.90
13982;DHT22;7065;50.880;5.502;2024-01-27T10:59:19;4.50;99.90
13982;DHT22;7065;50.880;5.502;2024-01-27T11:01:50;4.60;99.90
13982;DHT22;7065;50.880;5.502;2024-01-27T11:04:19;4.60;99.90
13982;DHT22;7065;50.880;5.502;2024-01-27T11:06:50;4.70;99.90
13982;DHT22;7065;50.880;5.502;2024-01-27T11:09:17;4.90;99.90
13982;DHT22;7065;50.880;5.502;2024-01-27T11:11:45;5.00;99.90
13982;DHT22;7065;50.880;5.502;2024-01-27T11:14:11;5.00;99.90
13982;DHT22;7065;50.880;5.502;2024-01-27T11:16:37;5.00;99.90
13982;DHT22;7065;50.880;5.502;2024-01-27T11:19:12;5.00;99.90
13982;DHT22;7065;50.880;5.502;2024-01-27T11:21:39;5.00;99.90
13982;DHT22;7065;50.880;5.502;2024-01-27T11:24:18;5.10;99.90
13982;DHT22;7065;50.880;5.502;2024-01-27T11:26:44;5.10;99.90
13982;DHT22;7065;50.880;5.502;2024-01-27T11:29:10;5.20;99.90
13982;DHT22;7065;50.880;5.502;2024-01-27T11:31:45;5.30;99.90
13982;DHT22;7065;50.880;5.502;2024-01-27T11:34:11;5.30;99.90
13982;DHT22;7065;50.880;5.502;2024-01-27T11:36:46;5.40;99.90
13982;DHT22;7065;50.880;5.502;2024-01-27T11:39:29;5.40;99.90
13982;DHT22;7065;50.880;5.502;2024-01-27T11:42:11;5.50;99.90
13982;DHT22;7065;50.880;5.502;2024-01-27T11:44:39;5.60;99.90
13982;DHT22;7065;50.880;5.502;2024-01-27T11:47:05;5.60;99.90
13982;DHT22;7065;50.880;5.502;2024-01-27T11:49:39;5.60;99.90
13982;DHT22;7065;50.880;5.502;2024-01-27T11:52:06;5.70;99.90
13982;DHT22;7065;50.880;5.502;2024-01-27T11:54:32;5.80;99.90
13982;DHT22;7065;50.880;5.502;2024-01-27T11:56:58;5.80;99.90
13982;DHT22;7065;50.880;5.502;2024-01-27T11:59:23;6.00;99.90
13982;DHT22;7065;50.880;5.502;2024-01-27T12:01:50;6.00;99.90
13982;DHT22;7065;50.880;5.502;2024-01-27T12:04:17;6.00;99.90
13982;DHT22;7065;50.880;5.502;2024-01-27T12:06:43;6.10;99.90
13982;DHT22;7065;50.880;5.502;2024-01-27T12:09:09;6.20;99.90
13982;DHT22;7065;50.880;5.502;2024-01-27T12:11:38;6.20;99.90
13982;DHT22;7065;50.880;5.502;2024-01-27T12:14:07;6.30;99.90
13982;DHT22;7065;50.880;5.502;2024-01-27T12:16:33;6.30;99.90
13982;DHT22;7065;50.880;5.502;2024-01-27T12:18:59;6.30;99.90
13982;DHT22;7065;50.880;5.502;2024-01-27T12:21:25;6.40;99.90
13982;DHT22;7065;50.880;5.502;2024-01-27T12:23:55;6.40;99.90
13982;DHT22;7065;50.880;5.502;2024-01-27T12:26:22;6.40;99.90
13982;DHT22;7065;50.880;5.502;2024-01-27T12:28:49;6.50;99.90
13982;DHT22;7065;50.880;5.502;2024-01-27T12:31:18;6.50;99.90
13982;DHT22;7065;50.880;5.502;2024-01-27T12:33:54;6.50;99.90
13982;DHT22;7065;50.880;5.502;2024-01-27T12:36:21;6.60;99.90
13982;DHT22;7065;50.880;5.502;2024-01-27T12:41:20;6.60;99.90
13982;DHT22;7065;50.880;5.502;2024-01-27T12:43:46;6.60;99.90
13982;DHT22;7065;50.880;5.502;2024-01-27T12:46:11;6.70;99.90
13982;DHT22;7065;50.880;5.502;2024-01-27T12:48:37;6.80;99.90
13982;DHT22;7065;50.880;5.502;2024-01-27T12:51:04;6.90;99.90
13982;DHT22;7065;50.880;5.502;2024-01-27T12:53:30;6.90;99.90
13982;DHT22;7065;50.880;5.502;2024-01-27T12:55:56;6.90;99.90
13982;DHT22;7065;50.880;5.502;2024-01-27T12:58:22;6.90;99.90
13982;DHT22;7065;50.880;5.502;2024-01-27T13:00:47;6.90;99.90
13982;DHT22;7065;50.880;5.502;2024-01-27T13:03:14;7.00;99.90
13982;DHT22;7065;50.880;5.502;2024-01-27T13:05:40;6.90;99.90
13982;DHT22;7065;50.880;5.502;2024-01-27T13:08:05;6.90;99.90
13982;DHT22;7065;50.880;5.502;2024-01-27T13:10:33;6.90;99.90
13982;DHT22;7065;50.880;5.502;2024-01-27T13:12:58;6.80;99.90
13982;DHT22;7065;50.880;5.502;2024-01-27T13:15:24;6.90;99.90
13982;DHT22;7065;50.880;5.502;2024-01-27T13:17:51;6.90;99.90
13982;DHT22;7065;50.880;5.502;2024-01-27T13:20:17;7.00;99.90
13982;DHT22;7065;50.880;5.502;2024-01-27T13:22:43;7.00;99.90
13982;DHT22;7065;50.880;5.502;2024-01-27T13:25:10;7.10;99.90
13982;DHT22;7065;50.880;5.502;2024-01-27T13:27:36;7.10;99.90
13982;DHT22;7065;50.880;5.502;2024-01-27T13:30:03;7.20;99.90
13982;DHT22;7065;50.880;5.502;2024-01-27T13:32:29;7.10;99.90
13982;DHT22;7065;50.880;5.502;2024-01-27T13:34:55;7.20;99.90
13982;DHT22;7065;50.880;5.502;2024-01-27T13:37:21;7.20;99.90
13982;DHT22;7065;50.880;5.502;2024-01-27T13:39:47;7.20;99.90
13982;DHT22;7065;50.880;5.502;2024-01-27T13:42:13;7.20;99.90
13982;DHT22;7065;50.880;5.502;2024-01-27T13:44:39;7.20;99.90
13982;DHT22;7065;50.880;5.502;2024-01-27T13:47:05;7.20;99.90
13982;DHT22;7065;50.880;5.502;2024-01-27T13:49:31;7.20;99.90
13982;DHT22;7065;50.880;5.502;2024-01-27T13:51:57;7.30;99.90
13982;DHT22;7065;50.880;5.502;2024-01-27T13:54:23;7.30;99.90
13982;DHT22;7065;50.880;5.502;2024-01-27T13:56:48;7.20;99.90
13982;DHT22;7065;50.880;5.502;2024-01-27T13:59:14;7.20;99.90
13982;DHT22;7065;50.880;5.502;2024-01-27T14:01:41;7.20;99.90
13982;DHT22;7065;50.880;5.502;2024-01-27T14:04:06;7.20;99.90
13982;DHT22;7065;50.880;5.502;2024-01-27T14:06:34;7.20;99.90
13982;DHT22;7065;50.880;5.502;2024-01-27T14:09:00;7.20;99.90
13982;DHT22;7065;50.880;5.502;2024-01-27T14:11:27;7.20;99.90
13982;DHT22;7065;50.880;5.502;2024-01-27T14:13:53;7.30;99.90
13982;DHT22;7065;50.880;5.502;2024-01-27T14:16:19;7.20;99.90
13982;DHT22;7065;50.880;5.502;2024-01-27T14:18:45;7.20;99.90
13982;DHT22;7065;50.880;5.502;2024-01-27T14:21:11;7.20;99.90
13982;DHT22;7065;50.880;5.502;2024-01-27T14:23:37;7.10;99.90
13982;DHT22;7065;50.880;5.502;2024-01-27T14:26:05;7.10;99.90
13982;DHT22;7065;50.880;5.502;2024-01-27T14:28:34;7.10;99.90
13982;DHT22;7065;50.880;5.502;2024-01-27T14:31:00;7.00;99.90
13982;DHT22;7065;50.880;5.502;2024-01-27T14:33:26;7.00;99.90
13982;DHT22;7065;50.880;5.502;2024-01-27T14:35:52;7.00;99.90
13982;DHT22;7065;50.880;5.502;2024-01-27T14:38:17;7.00;99.90
13982;DHT22;7065;50.880;5.502;2024-01-27T14:40:43;7.00;99.90
13982;DHT22;7065;50.880;5.502;2024-01-27T14:43:09;7.00;99.90
13982;DHT22;7065;50.880;5.502;2024-01-27T14:45:36;7.00;99.90
13982;DHT22;7065;50.880;5.502;2024-01-27T14:48:02;7.00;99.90
13982;DHT22;7065;50.880;5.502;2024-01-27T14:50:28;7.00;99.90
13982;DHT22;7065;50.880;5.502;2024-01-27T14:52:54;7.00;99.90
13982;DHT22;7065;50.880;5.502;2024-01-27T14:55:19;7.00;99.90
13982;DHT22;7065;50.880;5.502;2024-01-27T14:57:45;7.00;99.90
13982;DHT22;7065;50.880;5.502;2024-01-27T15:00:11;6.90;99.90
13982;DHT22;7065;50.880;5.502;2024-01-27T15:02:40;6.90;99.90
13982;DHT22;7065;50.880;5.502;2024-01-27T15:05:09;6.90;99.90
13982;DHT22;7065;50.880;5.502;2024-01-27T15:07:35;6.90;99.90
13982;DHT22;7065;50.880;5.502;2024-01-27T15:10:01;7.00;99.90
13982;DHT22;7065;50.880;5.502;2024-01-27T15:12:27;7.00;99.90
13982;DHT22;7065;50.880;5.502;2024-01-27T15:14:52;7.10;99.90
13982;DHT22;7065;50.880;5.502;2024-01-27T15:17:19;7.10;99.90
13982;DHT22;7065;50.880;5.502;2024-01-27T15:19:44;7.10;99.90
13982;DHT22;7065;50.880;5.502;2024-01-27T15:22:10;7.10;99.90
13982;DHT22;7065;50.880;5.502;2024-01-27T15:24:36;7.10;99.90
13982;DHT22;7065;50.880;5.502;2024-01-27T15:27:03;7.10;99.90
13982;DHT22;7065;50.880;5.502;2024-01-27T15:29:29;7.10;99.90
13982;DHT22;7065;50.880;5.502;2024-01-27T15:31:55;7.10;99.90
13982;DHT22;7065;50.880;5.502;2024-01-27T15:34:21;7.00;99.90
13982;DHT22;7065;50.880;5.502;2024-01-27T15:36:47;6.90;99.90
13982;DHT22;7065;50.880;5.502;2024-01-27T15:39:12;6.90;99.90
13982;DHT22;7065;50.880;5.502;2024-01-27T15:41:38;6.80;99.90
13982;DHT22;7065;50.880;5.502;2024-01-27T15:44:04;6.80;99.90
13982;DHT22;7065;50.880;5.502;2024-01-27T15:46:30;6.70;99.90
13982;DHT22;7065;50.880;5.502;2024-01-27T15:48:56;6.60;99.90
13982;DHT22;7065;50.880;5.502;2024-01-27T15:51:22;6.50;99.90
13982;DHT22;7065;50.880;5.502;2024-01-27T15:53:47;6.40;99.90